METAR Data
IDs: Format: Raw Decoded Include TAF

Data at: 1152 UTC 23 Sep 2018

KEMK 231135Z AUTO 30025KT 10SM FEW032 BKN060 BKN080 28/23 A2992 RMK A01
KEMK 231115Z AUTO 27021KT 10SM FEW048 SCT065 BKN120 27/23 A2991 RMK A01
KEMK 231055Z AUTO 27018G24KT 10SM SCT055 BKN070 BKN120 26/23 A2990 RMK A01
KEMK 231035Z AUTO 25025KT 10SM SCT017 SCT049 OVC060 26/23 A2991 RMK A01
KEMK 231015Z AUTO 26025KT 2SM HZ SCT003 BKN015 OVC027 26/24 A2991 RMK A01
KEMK 230955Z AUTO 29021G32KT 1/4SM HZ OVC003 25/22 A2990 RMK A01
KEMK 230935Z AUTO 26016KT 10SM FEW019 SCT034 29/25 A2989 RMK A01
KEMK 230915Z AUTO 25013KT 10SM CLR 29/25 A2988 RMK A01
KEMK 230855Z AUTO 25015KT 10SM CLR 29/25 A2989 RMK A01
KEMK 230835Z AUTO 25014KT 10SM CLR 28/24 A2989 RMK A01
KEMK 230815Z AUTO 25014KT 10SM FEW120 28/24 A2990 RMK A01
KEMK 230755Z AUTO 24016KT 10SM 28/24 A2991 RMK A01
KEMK 230735Z AUTO 24016KT 10SM 28/24 A2991 RMK A01
KEMK 230715Z AUTO 24015KT 10SM FEW018 SCT026 SCT033 29/25 A2991 RMK A01
KEMK 230655Z AUTO 24013KT 10SM FEW017 FEW024 29/25 A2991 RMK A01
KEMK 230635Z AUTO 24013KT 10SM FEW015 29/25 A2992 RMK A01
KEMK 230615Z AUTO 24013KT 10SM CLR 29/25 A2993 RMK A01
KEMK 230555Z AUTO 25015KT 10SM FEW015 FEW021 SCT030 29/25 A2992 RMK A01
KEMK 230535Z AUTO 24012KT 10SM SCT021 SCT029 29/25 A2993 RMK A01
KEMK 230515Z AUTO 26012KT 10SM FEW020 FEW029 FEW037 29/25 A2993 RMK A01
KEMK 230455Z AUTO 25013KT 10SM FEW019 FEW060 29/25 A2994 RMK A01
KEMK 230435Z AUTO 25011KT 10SM SCT019 SCT060 29/25 A2994 RMK A01
KEMK 230415Z AUTO 26010KT 10SM BKN019 29/25 A2994 RMK A01
KEMK 230355Z AUTO 25011KT 10SM FEW018 29/25 A2994 RMK A01
KEMK 230335Z AUTO 24010KT 10SM 29/25 A2994 RMK A01
KEMK 230315Z AUTO 25010KT 10SM 29/25 A2995 RMK A01
KEMK 230255Z AUTO 24010KT 29/25 A2994 RMK A01
KEMK 230235Z AUTO 24009KT 10SM CLR 29/25 A2994 RMK A01
KEMK 230215Z AUTO 25010KT 10SM CLR 29/25 A2993 RMK A01
KEMK 230155Z AUTO 25010KT 10SM CLR 29/25 A2993 RMK A01
KEMK 230135Z AUTO 24010KT 10SM CLR 29/25 A2993 RMK A01
KEMK 230115Z AUTO 24010KT 10SM 29/25 A2992 RMK A01
KEMK 230055Z AUTO 24009KT 10SM 29/25 A2991 RMK A01
KEMK 230035Z AUTO 26007KT 10SM FEW022 FEW031 29/25 A2990 RMK A01
KEMK 230015Z AUTO 26007KT 10SM SCT022 BKN031 29/25 A2991 RMK A01
KEMK 222355Z AUTO 27007KT 10SM FEW023 30/25 A2991 RMK A01
KEMK 222335Z AUTO 28008KT 10SM CLR 30/25 A2991 RMK A01
KEMK 222315Z AUTO 27009KT 10SM CLR 30/25 A2991 RMK A01
KEMK 222255Z AUTO 27010KT 10SM CLR 30/25 A2991 RMK A01
KEMK 222235Z AUTO 26009KT 10SM FEW022 FEW038 SCT075 30/25 A2992 RMK A01
KEMK 222215Z AUTO 26012KT 10SM FEW023 SCT035 BKN050 30/25 A2992 RMK A01
KEMK 222155Z AUTO 26010KT 10SM FEW022 SCT029 BKN049 30/25 A2992 RMK A01
KEMK 222135Z AUTO 27009KT 10SM CLR 30/25 A2992 RMK A01
KEMK 222115Z AUTO 27012KT 10SM CLR 30/25 A2992 RMK A01
KEMK 222055Z AUTO 27011KT 10SM FEW022 31/25 A2992 RMK A01
KEMK 222035Z AUTO 26012KT 10SM FEW022 31/25 A2993 RMK A01
KEMK 222015Z AUTO 26013KT 10SM CLR 31/25 A2993 RMK A01
KEMK 221955Z AUTO 26011KT 10SM FEW020 32/25 A2993 RMK A01
KEMK 221935Z AUTO 26012KT 10SM FEW020 FEW026 FEW033 32/25 A2994 RMK A01
KEMK 221915Z AUTO 26012KT 10SM CLR 32/25 A2994 RMK A01
KEMK 221855Z AUTO 28010KT 10SM CLR 32/25 A2995 RMK A01
KEMK 221835Z AUTO 27011KT 10SM FEW022 FEW027 31/25 A2996 RMK A01
KEMK 221815Z AUTO 27012KT 10SM FEW021 FEW028 31/25 A2997 RMK A01
KEMK 221755Z AUTO 28013KT 10SM CLR 30/25 A2997 RMK A01
KEMK 221735Z AUTO 28015KT 10SM CLR 30/25 A2997 RMK A01
KEMK 221715Z AUTO 27015KT 10SM FEW020 SCT027 30/25 A2998 RMK A01
KEMK 221655Z AUTO 27016KT 10SM BKN020 BKN027 30/25 A2998 RMK A01
KEMK 221635Z AUTO 27014KT 10SM SCT020 SCT028 30/25 A2999 RMK A01
KEMK 221615Z AUTO 27015KT 10SM FEW021 FEW029 30/25 A2998 RMK A01
KEMK 221555Z AUTO 27014KT 10SM SCT022 SCT029 30/25 A2998 RMK A01
KEMK 221535Z AUTO 28015KT 10SM SCT022 30/25 A2998 RMK A01
KEMK 221515Z AUTO 26009KT 10SM CLR 30/26 A2997 RMK A01
KEMK 221455Z AUTO 28007KT 10SM CLR 27/24 A2997 RMK A01
KEMK 221435Z AUTO 27007KT 3SM HZ FEW026 FEW032 25/21 A2997 RMK A01
KEMK 221415Z AUTO 30024G33KT 2 1/2SM HZ SCT019 BKN025 BKN031 28/23 A2998 RMK A01
KEMK 221355Z AUTO 27016KT 9SM SCT025 SCT055 BKN090 30/26 A2997 RMK A01
KEMK 221335Z AUTO 27017KT 10SM SCT021 SCT034 BKN095 29/25 A2997 RMK A01
KEMK 221315Z AUTO 28013KT 10SM SCT018 BKN025 BKN038 29/26 A2996 RMK A01
KEMK 221255Z AUTO 27014KT 10SM SCT020 BKN026 BKN038 30/26 A2995 RMK A01
KEMK 221235Z AUTO 28014KT 9SM FEW019 FEW024 29/25 A2994 RMK A01
KEMK 221215Z AUTO 27015KT 10SM FEW019 29/25 A2994 RMK A01
KEMK 221155Z AUTO 27014KT 10SM FEW018 29/25 A2994 RMK A01
KEMK 221135Z AUTO 27014KT 10SM FEW018 29/26 A2994 RMK A01
KEMK 221115Z AUTO 26014KT 10SM FEW019 29/26 A2994 RMK A01
KEMK 221055Z AUTO 26013KT 10SM CLR 29/25 A2994 RMK A01
KEMK 221035Z AUTO 26015KT 10SM CLR 29/25 A2993 RMK A01
KEMK 221015Z AUTO 26014KT 10SM CLR 29/26 A2992 RMK A01
KEMK 220955Z AUTO 26017KT 10SM CLR 29/25 A2992 RMK A01
KEMK 220935Z AUTO 26019KT 10SM CLR 29/26 A2992 RMK A01
KEMK 220915Z AUTO 25018KT 10SM 29/26 A2993 RMK A01
KEMK 220855Z AUTO 25017KT 10SM 29/26 A2993 RMK A01
KEMK 220835Z AUTO 25018KT 10SM 29/26 A2994 RMK A01
KEMK 220815Z AUTO 25016KT 10SM FEW017 29/26 A2995 RMK A01
KEMK 220755Z AUTO 25014KT 10SM FEW018 29/26 A2996 RMK A01
KEMK 220735Z AUTO 24017KT 10SM FEW017 FEW023 29/26 A2995 RMK A01
KEMK 220715Z AUTO 24017KT 10SM FEW019 FEW024 29/26 A2996 RMK A01
KEMK 220655Z AUTO 24016KT 10SM 29/26 A2996 RMK A01
KEMK 220635Z AUTO 23015KT 10SM 29/26 A2997 RMK A01
KEMK 220615Z AUTO 20010KT 9SM 28/25 A2996 RMK A01
KEMK 220555Z AUTO 20014KT 10SM FEW007 FEW023 SCT049 28/25 A2997 RMK A01
KEMK 220535Z AUTO 21014KT 10SM SCT048 BKN060 BKN090 27/25 A2998 RMK A01
KEMK 220515Z AUTO 22013G19KT 9SM FEW004 SCT037 BKN060 27/24 A2998 RMK A01
KEMK 220455Z AUTO 24018G25KT 2SM HZ SCT004 BKN038 OVC080 26/24 A3001 RMK A01
KEMK 220435Z AUTO 22018KT 10SM FEW017 BKN080 28/25 A3000 RMK A01
KEMK 220415Z AUTO 20015G23KT 10SM CLR 27/24 A2999 RMK A01
KEMK 220355Z AUTO 20019KT 10SM FEW026 SCT043 BKN065 27/24 A3000 RMK A01
KEMK 220335Z AUTO 19021KT 10SM FEW034 FEW045 BKN055 29/25 A3000 RMK A01
KEMK 220315Z AUTO 23016KT 10SM BKN055 29/26 A2999 RMK A01
KEMK 220255Z AUTO 24015KT 10SM FEW055 FEW065 SCT080 29/26 A2998 RMK A01
KEMK 220235Z AUTO 24014KT 10SM FEW055 FEW065 SCT075 29/26 A2998 RMK A01
KEMK 220215Z AUTO 24012KT 10SM FEW120 29/26 A2997 RMK A01
KEMK 220155Z AUTO 23012KT 10SM 29/26 A2997 RMK A01
KEMK 220135Z AUTO 23010KT 10SM 29/26 A2996 RMK A01
KEMK 220115Z AUTO 24011KT 10SM 29/26 A2996 RMK A01
KEMK 220055Z AUTO 24014KT 9SM 29/26 A2996 RMK A01
KEMK 220035Z AUTO 22012KT 10SM BKN015 BKN020 OVC029 29/26 A2994 RMK A01
KEMK 220015Z AUTO 22010KT 6SM HZ BKN015 BKN022 29/26 A2994 RMK A01
KEMK 212355Z AUTO 21010KT 7SM FEW015 28/26 A2993 RMK A01